createdAt,value
2018-11-01T00:00:01.537Z,0.00
2018-11-01T00:01:07.683Z,0.00
2018-11-01T00:02:13.330Z,0.00
2018-11-01T00:03:19.948Z,0.00
2018-11-01T00:04:25.604Z,0.00
2018-11-01T00:05:32.227Z,0.00
2018-11-01T00:06:39.441Z,0.00
2018-11-01T00:07:44.005Z,0.00
2018-11-01T00:08:50.120Z,0.00
2018-11-01T00:09:56.261Z,0.00
2018-11-01T00:11:02.874Z,0.00
2018-11-01T00:12:08.513Z,0.00
2018-11-01T00:13:15.119Z,0.00
2018-11-01T00:14:21.255Z,0.00
2018-11-01T00:15:27.383Z,0.00
2018-11-01T00:16:33.002Z,0.00
2018-11-01T00:17:39.620Z,0.00
2018-11-01T00:18:46.242Z,0.00
2018-11-01T00:19:51.850Z,0.00
2018-11-01T00:20:57.980Z,0.00
2018-11-01T00:22:04.121Z,0.00
2018-11-01T00:23:10.209Z,0.00
2018-11-01T00:24:16.338Z,0.00
2018-11-01T00:25:22.451Z,0.00
2018-11-01T00:26:28.568Z,0.00
2018-11-01T00:27:34.677Z,0.00
2018-11-01T00:28:40.332Z,0.00
2018-11-01T00:29:46.606Z,0.00
2018-11-01T00:30:53.026Z,0.00
2018-11-01T00:31:58.647Z,0.00
2018-11-01T00:33:05.238Z,0.00
2018-11-01T00:34:11.356Z,0.00
2018-11-01T00:35:17.590Z,0.00
2018-11-01T00:36:23.578Z,0.00
2018-11-01T00:37:29.201Z,0.00
2018-11-01T00:38:35.287Z,0.00
2018-11-01T00:39:41.894Z,0.00
2018-11-01T00:40:47.988Z,0.00
2018-11-01T00:41:54.125Z,0.00
2018-11-01T00:43:00.198Z,0.00
2018-11-01T00:44:05.804Z,0.00
2018-11-01T00:45:12.401Z,0.00
2018-11-01T00:46:18.511Z,0.00
2018-11-01T00:47:24.620Z,0.00
2018-11-01T00:48:30.715Z,0.00
2018-11-01T00:49:36.322Z,0.00
2018-11-01T00:50:42.417Z,0.00
2018-11-01T00:51:49.005Z,0.00
2018-11-01T00:52:54.620Z,0.00
2018-11-01T00:54:00.729Z,0.00
2018-11-01T00:55:07.312Z,0.00
2018-11-01T00:56:13.401Z,0.00
2018-11-01T00:57:19.041Z,0.00
2018-11-01T00:58:25.642Z,0.00
2018-11-01T00:59:31.711Z,0.00
2018-11-01T01:00:37.804Z,0.00
2018-11-01T01:01:43.405Z,0.00
2018-11-01T01:02:49.994Z,0.00
2018-11-01T01:03:56.094Z,0.00
2018-11-01T01:05:02.180Z,0.00
2018-11-01T01:06:09.277Z,0.00
2018-11-01T01:07:14.390Z,0.00
2018-11-01T01:08:20.500Z,0.00
2018-11-01T01:09:26.576Z,0.00
2018-11-01T01:10:32.681Z,0.00
2018-11-01T01:11:38.776Z,0.00
2018-11-01T01:12:44.995Z,0.00
2018-11-01T01:13:50.451Z,0.00
2018-11-01T01:14:57.044Z,0.00
2018-11-01T01:16:03.130Z,0.00
2018-11-01T01:17:09.231Z,0.00
2018-11-01T01:18:15.320Z,0.00
2018-11-01T01:19:20.912Z,0.00
2018-11-01T01:20:27.489Z,0.00
2018-11-01T01:21:33.585Z,0.00
2018-11-01T01:22:39.663Z,0.00
2018-11-01T01:23:45.759Z,0.00
2018-11-01T01:24:51.849Z,0.00
2018-11-01T01:25:57.939Z,0.00
2018-11-01T01:27:04.029Z,0.00
2018-11-01T01:28:10.136Z,0.00
2018-11-01T01:29:16.189Z,0.00
2018-11-01T01:30:22.295Z,0.00
2018-11-01T01:31:28.361Z,0.00
2018-11-01T01:32:33.952Z,0.00
2018-11-01T01:33:41.048Z,0.00
2018-11-01T01:34:46.703Z,0.00
2018-11-01T01:35:52.240Z,0.00
2018-11-01T01:36:58.786Z,0.00
2018-11-01T01:38:04.877Z,0.00
2018-11-01T01:39:10.963Z,0.00
2018-11-01T01:40:17.048Z,0.00
2018-11-01T01:41:23.125Z,0.00
2018-11-01T01:42:29.216Z,0.00
2018-11-01T01:43:35.285Z,0.00
2018-11-01T01:44:41.371Z,0.00
2018-11-01T01:45:46.960Z,0.00
2018-11-01T01:46:54.579Z,0.00
2018-11-01T01:47:59.619Z,0.00
2018-11-01T01:49:05.689Z,0.00
2018-11-01T01:50:11.828Z,0.00
2018-11-01T01:51:17.854Z,0.00
2018-11-01T01:52:23.935Z,0.00
2018-11-01T01:53:30.027Z,0.00
2018-11-01T01:54:35.606Z,0.00
2018-11-01T01:55:42.165Z,0.00
2018-11-01T01:56:47.763Z,0.00
2018-11-01T01:57:54.331Z,0.00
2018-11-01T01:59:00.417Z,0.00
2018-11-01T02:00:06.575Z,0.00
2018-11-01T02:01:12.077Z,0.00
2018-11-01T02:02:18.661Z,0.00
2018-11-01T02:03:24.720Z,0.00
2018-11-01T02:04:30.325Z,0.00
2018-11-01T02:05:36.892Z,0.00
2018-11-01T02:06:42.588Z,0.00
2018-11-01T02:07:49.067Z,0.00
2018-11-01T02:08:55.146Z,0.00
2018-11-01T02:10:01.210Z,0.00
2018-11-01T02:11:07.313Z,0.00
2018-11-01T02:12:13.383Z,0.00
2018-11-01T02:13:18.965Z,0.00
2018-11-01T02:14:25.549Z,0.00
2018-11-01T02:15:32.615Z,0.00
2018-11-01T02:16:37.690Z,0.00
2018-11-01T02:17:43.304Z,0.00
2018-11-01T02:18:49.858Z,0.00
2018-11-01T02:19:55.943Z,0.00
2018-11-01T02:21:02.005Z,0.00
2018-11-01T02:22:07.597Z,0.00
2018-11-01T02:23:14.167Z,0.00
2018-11-01T02:24:20.249Z,0.00
2018-11-01T02:25:26.322Z,0.00
2018-11-01T02:26:31.919Z,0.00
2018-11-01T02:27:37.990Z,0.00
2018-11-01T02:28:44.059Z,0.00
2018-11-01T02:29:50.649Z,0.00
2018-11-01T02:30:56.721Z,0.00
2018-11-01T02:32:02.797Z,0.00
2018-11-01T02:33:08.377Z,0.00
2018-11-01T02:34:14.960Z,0.00
2018-11-01T02:35:21.043Z,0.00
2018-11-01T02:36:27.098Z,0.00
2018-11-01T02:37:33.197Z,0.00
2018-11-01T02:38:39.318Z,0.00
2018-11-01T02:39:45.340Z,0.00
2018-11-01T02:40:51.409Z,0.00
2018-11-01T02:41:57.497Z,0.00
2018-11-01T02:43:03.584Z,0.00
2018-11-01T02:44:09.143Z,0.00
2018-11-01T02:45:15.223Z,0.00
2018-11-01T02:46:21.799Z,0.00
2018-11-01T02:47:27.868Z,0.00
2018-11-01T02:48:33.941Z,0.00
2018-11-01T02:49:40.024Z,0.00
2018-11-01T02:50:46.092Z,0.00
2018-11-01T02:51:52.165Z,0.00
2018-11-01T02:52:58.243Z,0.00
2018-11-01T02:54:04.314Z,0.00
2018-11-01T02:55:10.395Z,0.00
2018-11-01T02:56:15.961Z,0.00
2018-11-01T02:57:22.021Z,0.00
2018-11-01T02:58:28.093Z,0.00
2018-11-01T02:59:34.713Z,0.00
2018-11-01T03:00:40.734Z,0.00
2018-11-01T03:01:47.120Z,0.00
2018-11-01T03:02:52.884Z,0.00
2018-11-01T03:03:58.958Z,0.00
2018-11-01T03:05:04.536Z,0.00
2018-11-01T03:06:11.098Z,0.00
2018-11-01T03:07:17.175Z,0.00
2018-11-01T03:08:23.231Z,0.00
2018-11-01T03:09:29.329Z,0.00
2018-11-01T03:10:35.391Z,0.00
2018-11-01T03:11:41.452Z,0.00
2018-11-01T03:12:47.023Z,0.00
2018-11-01T03:13:53.088Z,0.00
2018-11-01T03:14:59.666Z,0.00
2018-11-01T03:16:05.724Z,0.00
2018-11-01T03:17:11.397Z,0.00
2018-11-01T03:18:17.854Z,0.00
2018-11-01T03:19:23.921Z,0.00
2018-11-01T03:20:30.007Z,0.00
2018-11-01T03:21:35.618Z,0.00
2018-11-01T03:22:41.638Z,0.00
2018-11-01T03:23:47.702Z,0.00
2018-11-01T03:24:54.267Z,0.00
2018-11-01T03:26:00.319Z,0.00
2018-11-01T03:27:06.398Z,0.00
2018-11-01T03:28:12.448Z,0.00
2018-11-01T03:29:18.564Z,0.00
2018-11-01T03:30:24.594Z,0.00
2018-11-01T03:31:30.658Z,0.00
2018-11-01T03:32:36.220Z,0.00
2018-11-01T03:33:42.780Z,0.00
2018-11-01T03:34:48.851Z,0.00
2018-11-01T03:35:54.893Z,0.00
2018-11-01T03:37:00.960Z,0.00
2018-11-01T03:38:07.074Z,0.00
2018-11-01T03:39:13.108Z,0.00
2018-11-01T03:40:18.657Z,0.00
2018-11-01T03:41:25.199Z,0.00
2018-11-01T03:42:31.259Z,0.00
2018-11-01T03:43:37.322Z,0.00
2018-11-01T03:44:43.380Z,0.00
2018-11-01T03:45:49.011Z,0.00
2018-11-01T03:46:55.010Z,0.00
2018-11-01T03:48:02.572Z,0.00
2018-11-01T03:49:07.620Z,0.00
2018-11-01T03:50:13.694Z,0.00
2018-11-01T03:51:19.726Z,0.00
2018-11-01T03:52:25.955Z,0.00
2018-11-01T03:53:31.904Z,0.00
2018-11-01T03:54:37.975Z,0.00
2018-11-01T03:55:43.956Z,0.00
2018-11-01T03:56:50.002Z,0.00
2018-11-01T03:57:56.066Z,0.00
2018-11-01T03:59:01.633Z,0.00
2018-11-01T04:00:08.190Z,0.00
2018-11-01T04:01:14.244Z,0.00
2018-11-01T04:02:20.268Z,0.00
2018-11-01T04:03:26.334Z,0.00
2018-11-01T04:04:32.387Z,0.00
2018-11-01T04:05:38.440Z,0.00
2018-11-01T04:06:44.565Z,0.00
2018-11-01T04:07:50.563Z,0.00
2018-11-01T04:08:56.589Z,0.00
2018-11-01T04:10:02.144Z,0.00
2018-11-01T04:11:09.687Z,0.00
2018-11-01T04:12:14.740Z,0.00
2018-11-01T04:13:20.804Z,0.00
2018-11-01T04:14:26.841Z,0.00
2018-11-01T04:15:32.497Z,0.00
2018-11-01T04:16:38.953Z,0.00
2018-11-01T04:17:44.992Z,0.00
2018-11-01T04:18:51.042Z,0.00
2018-11-01T04:19:57.094Z,0.00
2018-11-01T04:21:02.664Z,0.00
2018-11-01T04:22:08.683Z,0.00
2018-11-01T04:23:15.257Z,0.00
2018-11-01T04:24:21.276Z,0.00
2018-11-01T04:25:27.327Z,0.00
2018-11-01T04:26:32.875Z,0.00
2018-11-01T04:27:39.416Z,0.00
2018-11-01T04:28:46.635Z,0.00
2018-11-01T04:29:51.005Z,0.00
2018-11-01T04:30:57.560Z,0.00
2018-11-01T04:32:03.577Z,0.00
2018-11-01T04:33:09.683Z,0.00
2018-11-01T04:34:15.684Z,0.00
2018-11-01T04:35:21.778Z,0.00
2018-11-01T04:36:27.756Z,0.00
2018-11-01T04:37:33.814Z,0.00
2018-11-01T04:38:39.861Z,0.00
2018-11-01T04:39:45.892Z,0.00
2018-11-01T04:40:51.942Z,0.00
2018-11-01T04:41:57.991Z,0.00
2018-11-01T04:43:04.111Z,0.00
2018-11-01T04:44:10.107Z,0.00
2018-11-01T04:45:16.143Z,0.00
2018-11-01T04:46:22.196Z,0.00
2018-11-01T04:47:27.795Z,0.00
2018-11-01T04:48:34.255Z,0.00
2018-11-01T04:49:40.300Z,0.00
2018-11-01T04:50:47.342Z,0.00
2018-11-01T04:51:52.387Z,0.00
2018-11-01T04:52:58.429Z,0.00
2018-11-01T04:54:04.617Z,0.00
2018-11-01T04:55:10.565Z,0.00
2018-11-01T04:56:16.598Z,0.00
2018-11-01T04:57:22.629Z,0.00
2018-11-01T04:58:28.640Z,0.00
2018-11-01T04:59:34.686Z,0.00
2018-11-01T05:00:40.752Z,0.00
2018-11-01T05:01:46.763Z,0.00
2018-11-01T05:02:52.812Z,0.00
2018-11-01T05:03:58.861Z,0.00
2018-11-01T05:05:04.951Z,0.00
2018-11-01T05:06:10.948Z,0.00
2018-11-01T05:07:17.020Z,0.00
2018-11-01T05:08:23.019Z,0.00
2018-11-01T05:09:29.061Z,0.00
2018-11-01T05:10:34.608Z,0.00
2018-11-01T05:11:41.136Z,0.00
2018-11-01T05:12:47.172Z,0.00
2018-11-01T05:13:52.723Z,0.00
2018-11-01T05:14:58.797Z,0.00
2018-11-01T05:16:05.314Z,0.00
2018-11-01T05:17:11.350Z,0.00
2018-11-01T05:18:17.376Z,0.00
2018-11-01T05:19:23.430Z,0.00
2018-11-01T05:20:30.726Z,0.00
2018-11-01T05:21:35.510Z,0.00
2018-11-01T05:22:41.554Z,0.00
2018-11-01T05:23:47.593Z,0.00
2018-11-01T05:24:53.651Z,0.00
2018-11-01T05:25:59.743Z,0.00
2018-11-01T05:27:05.741Z,0.00
2018-11-01T05:28:11.763Z,0.00
2018-11-01T05:29:17.828Z,0.00
2018-11-01T05:30:23.854Z,0.00
2018-11-01T05:31:29.920Z,0.00
2018-11-01T05:32:35.948Z,0.00
2018-11-01T05:33:41.519Z,0.00
2018-11-01T05:34:48.056Z,0.00
2018-11-01T05:35:54.092Z,0.00
2018-11-01T05:37:00.159Z,0.00
2018-11-01T05:38:06.202Z,0.00
2018-11-01T05:39:12.258Z,0.00
2018-11-01T05:40:18.292Z,0.00
2018-11-01T05:41:24.352Z,0.00
2018-11-01T05:42:30.403Z,0.00
2018-11-01T05:43:35.960Z,0.00
2018-11-01T05:44:42.564Z,0.00
2018-11-01T05:45:48.572Z,0.00
2018-11-01T05:46:54.605Z,0.00
2018-11-01T05:48:00.653Z,0.00
2018-11-01T05:49:06.695Z,0.00
2018-11-01T05:50:12.756Z,0.00
2018-11-01T05:51:18.798Z,0.00
2018-11-01T05:52:24.858Z,0.00
2018-11-01T05:53:30.909Z,0.00
2018-11-01T05:54:36.958Z,0.00
2018-11-01T05:55:42.503Z,0.00
2018-11-01T05:56:49.060Z,0.00
2018-11-01T05:57:54.692Z,0.00
2018-11-01T05:59:01.162Z,0.00
2018-11-01T06:00:06.830Z,0.00
2018-11-01T06:01:13.281Z,0.00
2018-11-01T06:02:19.322Z,0.00
2018-11-01T06:03:25.371Z,0.00
2018-11-01T06:04:31.424Z,0.00
2018-11-01T06:05:37.531Z,0.00
2018-11-01T06:06:43.539Z,0.00
2018-11-01T06:07:49.589Z,0.00
2018-11-01T06:08:55.623Z,0.00
2018-11-01T06:10:01.192Z,0.00
2018-11-01T06:11:07.291Z,0.00
2018-11-01T06:12:13.823Z,0.00
2018-11-01T06:13:19.833Z,0.00
2018-11-01T06:14:25.886Z,0.00
2018-11-01T06:15:31.944Z,5.63
2018-11-01T06:16:37.999Z,5.63
2018-11-01T06:17:44.056Z,5.63
2018-11-01T06:18:50.108Z,5.63
2018-11-01T06:19:55.671Z,5.63
2018-11-01T06:21:02.200Z,5.63
2018-11-01T06:22:08.260Z,5.63
2018-11-01T06:23:14.316Z,5.63
2018-11-01T06:24:20.371Z,5.63
2018-11-01T06:25:26.409Z,11.25
2018-11-01T06:26:31.970Z,11.25
2018-11-01T06:27:38.571Z,11.25
2018-11-01T06:28:44.574Z,11.25
2018-11-01T06:29:50.126Z,11.25
2018-11-01T06:30:56.677Z,11.25
2018-11-01T06:32:02.735Z,16.88
2018-11-01T06:33:09.772Z,16.88
2018-11-01T06:34:14.837Z,16.88
2018-11-01T06:35:20.397Z,16.88
2018-11-01T06:36:26.947Z,22.50
2018-11-01T06:37:32.995Z,22.50
2018-11-01T06:38:39.046Z,28.13
2018-11-01T06:39:45.107Z,28.13
2018-11-01T06:40:51.176Z,33.75
2018-11-01T06:41:57.222Z,33.75
2018-11-01T06:43:02.795Z,33.75
2018-11-01T06:44:09.363Z,39.38
2018-11-01T06:45:15.394Z,39.38
2018-11-01T06:46:20.952Z,39.38
2018-11-01T06:47:27.519Z,45.00
2018-11-01T06:48:33.076Z,45.00
2018-11-01T06:49:39.630Z,50.63
2018-11-01T06:50:45.188Z,50.63
2018-11-01T06:51:51.749Z,50.63
2018-11-01T06:52:57.808Z,56.25
2018-11-01T06:54:03.872Z,56.25
2018-11-01T06:55:09.947Z,61.88
2018-11-01T06:56:16.008Z,67.50
2018-11-01T06:57:22.078Z,73.13
2018-11-01T06:58:28.251Z,67.50
2018-11-01T06:59:34.309Z,73.13
2018-11-01T07:00:40.263Z,73.13
2018-11-01T07:01:46.356Z,78.75
2018-11-01T07:02:51.916Z,78.75
2018-11-01T07:03:58.562Z,78.75
2018-11-01T07:05:04.568Z,84.38
2018-11-01T07:06:10.137Z,90.00
2018-11-01T07:07:16.709Z,90.00
2018-11-01T07:08:22.770Z,84.38
2018-11-01T07:09:28.852Z,78.75
2018-11-01T07:10:34.433Z,78.75
2018-11-01T07:11:41.082Z,73.13
2018-11-01T07:12:46.583Z,73.13
2018-11-01T07:13:53.155Z,78.75
2018-11-01T07:14:59.238Z,90.00
2018-11-01T07:16:05.316Z,95.63
2018-11-01T07:17:11.439Z,101.25
2018-11-01T07:18:17.484Z,106.88
2018-11-01T07:19:23.559Z,106.88
2018-11-01T07:20:29.634Z,106.88
2018-11-01T07:21:35.738Z,106.88
2018-11-01T07:22:41.830Z,112.50
2018-11-01T07:23:47.906Z,112.50
2018-11-01T07:24:53.995Z,112.50
2018-11-01T07:26:00.219Z,112.50
2018-11-01T07:27:06.172Z,112.50
2018-11-01T07:28:12.280Z,118.13
2018-11-01T07:29:18.347Z,123.75
2018-11-01T07:30:24.578Z,129.38
2018-11-01T07:31:30.608Z,129.38
2018-11-01T07:32:36.690Z,123.75
2018-11-01T07:33:42.252Z,123.75
2018-11-01T07:34:48.346Z,123.75
2018-11-01T07:35:55.947Z,123.75
2018-11-01T07:37:01.062Z,118.13
2018-11-01T07:38:07.163Z,118.13
2018-11-01T07:39:13.259Z,118.13
2018-11-01T07:40:19.353Z,118.13
2018-11-01T07:41:25.475Z,123.75
2018-11-01T07:42:31.080Z,129.38
2018-11-01T07:43:37.671Z,135.00
2018-11-01T07:44:43.777Z,146.25
2018-11-01T07:45:49.897Z,146.25
2018-11-01T07:46:56.008Z,151.88
2018-11-01T07:48:02.127Z,151.88
2018-11-01T07:49:08.233Z,151.88
2018-11-01T07:50:14.357Z,151.88
2018-11-01T07:51:19.973Z,151.88
2018-11-01T07:52:26.099Z,157.50
2018-11-01T07:53:32.705Z,163.13
2018-11-01T07:54:38.821Z,163.13
2018-11-01T07:55:44.441Z,163.13
2018-11-01T07:56:51.066Z,157.50
2018-11-01T07:57:57.195Z,151.88
2018-11-01T07:59:02.808Z,146.25
2018-11-01T08:00:08.931Z,140.63
2018-11-01T08:01:15.074Z,140.63
2018-11-01T08:02:21.196Z,140.63
2018-11-01T08:03:27.311Z,140.63
2018-11-01T08:04:33.435Z,140.63
2018-11-01T08:05:40.094Z,135.00
2018-11-01T08:06:46.192Z,135.00
2018-11-01T08:07:51.821Z,140.63
2018-11-01T08:08:58.565Z,140.63
2018-11-01T08:10:04.075Z,140.63
2018-11-01T08:11:10.205Z,140.63
2018-11-01T08:12:16.819Z,140.63
2018-11-01T08:13:22.958Z,140.63
2018-11-01T08:14:29.082Z,140.63
2018-11-01T08:15:35.262Z,140.63
2018-11-01T08:16:41.360Z,140.63
2018-11-01T08:17:47.506Z,140.63
2018-11-01T08:18:53.138Z,146.25
2018-11-01T08:19:59.983Z,157.50
2018-11-01T08:21:06.019Z,163.13
2018-11-01T08:22:12.045Z,163.13
2018-11-01T08:23:17.687Z,163.13
2018-11-01T08:24:23.819Z,163.13
2018-11-01T08:25:30.462Z,157.50
2018-11-01T08:26:36.607Z,157.50
2018-11-01T08:27:42.808Z,157.50
2018-11-01T08:28:48.400Z,163.13
2018-11-01T08:29:54.740Z,168.75
2018-11-01T08:31:00.687Z,174.38
2018-11-01T08:32:07.322Z,180.00
2018-11-01T08:33:13.572Z,180.00
2018-11-01T08:34:19.134Z,180.00
2018-11-01T08:35:25.288Z,185.63
2018-11-01T08:36:31.971Z,185.63
2018-11-01T08:37:38.087Z,185.63
2018-11-01T08:38:44.252Z,185.63
2018-11-01T08:39:49.913Z,191.25
2018-11-01T08:40:56.109Z,196.88
2018-11-01T08:42:02.724Z,208.13
2018-11-01T08:43:08.895Z,213.75
2018-11-01T08:44:15.053Z,213.75
2018-11-01T08:45:20.718Z,213.75
2018-11-01T08:46:27.372Z,208.13
2018-11-01T08:47:33.568Z,208.13
2018-11-01T08:48:39.227Z,208.13
2018-11-01T08:49:45.891Z,208.13
2018-11-01T08:50:51.570Z,208.13
2018-11-01T08:51:57.734Z,213.75
2018-11-01T08:53:04.404Z,213.75
2018-11-01T08:54:10.088Z,219.38
2018-11-01T08:55:16.749Z,219.38
2018-11-01T08:56:22.433Z,219.38
2018-11-01T08:57:29.109Z,219.38
2018-11-01T08:58:35.301Z,219.38
2018-11-01T08:59:40.999Z,213.75
2018-11-01T09:00:47.656Z,213.75
2018-11-01T09:01:53.357Z,213.75
2018-11-01T09:02:59.539Z,213.75
2018-11-01T09:04:06.260Z,219.38
2018-11-01T09:05:12.411Z,219.38
2018-11-01T09:06:18.594Z,219.38
2018-11-01T09:07:24.364Z,219.38
2018-11-01T09:08:30.977Z,219.38
2018-11-01T09:09:36.688Z,219.38
2018-11-01T09:10:43.342Z,219.38
2018-11-01T09:11:49.570Z,213.75
2018-11-01T09:12:55.891Z,208.13
2018-11-01T09:14:02.935Z,208.13
2018-11-01T09:15:08.135Z,208.13
2018-11-01T09:16:14.330Z,202.50
2018-11-01T09:17:20.025Z,202.50
2018-11-01T09:18:26.685Z,191.25
2018-11-01T09:19:32.448Z,185.63
2018-11-01T09:20:38.622Z,191.25
2018-11-01T09:21:45.313Z,196.88
2018-11-01T09:22:51.564Z,202.50
2018-11-01T09:23:57.716Z,213.75
2018-11-01T09:25:03.911Z,208.13
2018-11-01T09:26:11.108Z,208.13
2018-11-01T09:27:16.388Z,208.13
2018-11-01T09:28:23.575Z,213.75
2018-11-01T09:29:28.725Z,219.38
2018-11-01T09:30:34.937Z,225.00
2018-11-01T09:31:40.641Z,225.00
2018-11-01T09:32:47.380Z,225.00
2018-11-01T09:33:53.063Z,236.25
2018-11-01T09:34:59.272Z,241.88
2018-11-01T09:36:05.979Z,247.50
2018-11-01T09:37:12.184Z,253.13
2018-11-01T09:38:17.918Z,253.13
2018-11-01T09:39:24.633Z,253.13
2018-11-01T09:40:30.341Z,247.50
2018-11-01T09:41:37.359Z,247.50
2018-11-01T09:42:43.295Z,236.25
2018-11-01T09:43:49.015Z,230.63
2018-11-01T09:44:55.715Z,230.63
2018-11-01T09:46:01.606Z,225.00
2018-11-01T09:47:08.008Z,225.00
2018-11-01T09:48:13.890Z,225.00
2018-11-01T09:49:20.109Z,225.00
2018-11-01T09:50:26.315Z,230.63
2018-11-01T09:51:33.042Z,230.63
2018-11-01T09:52:38.764Z,236.25
2018-11-01T09:53:45.574Z,230.63
2018-11-01T09:54:51.208Z,225.00
2018-11-01T09:55:57.453Z,219.38
2018-11-01T09:57:04.147Z,219.38
2018-11-01T09:58:10.373Z,213.75
2018-11-01T09:59:16.120Z,208.13
2018-11-01T10:00:22.842Z,202.50
2018-11-01T10:01:29.047Z,202.50
2018-11-01T10:02:34.788Z,196.88
2018-11-01T10:03:42.507Z,191.25
2018-11-01T10:04:47.749Z,191.25
2018-11-01T10:05:53.646Z,191.25
2018-11-01T10:06:59.716Z,196.88
2018-11-01T10:08:06.409Z,208.13
2018-11-01T10:09:12.149Z,213.75
2018-11-01T10:10:18.865Z,219.38
2018-11-01T10:11:24.601Z,230.63
2018-11-01T10:12:30.825Z,230.63
2018-11-01T10:13:37.585Z,230.63
2018-11-01T10:14:43.282Z,230.63
2018-11-01T10:15:49.683Z,225.00
2018-11-01T10:16:56.201Z,219.38
2018-11-01T10:18:02.452Z,213.75
2018-11-01T10:19:08.236Z,208.13
2018-11-01T10:20:14.945Z,202.50
2018-11-01T10:21:21.258Z,202.50
2018-11-01T10:22:27.026Z,202.50
2018-11-01T10:23:33.171Z,208.13
2018-11-01T10:24:39.908Z,213.75
2018-11-01T10:25:46.130Z,219.38
2018-11-01T10:26:51.883Z,219.38
2018-11-01T10:27:58.113Z,219.38
2018-11-01T10:29:04.877Z,219.38
2018-11-01T10:30:11.083Z,219.38
2018-11-01T10:31:17.835Z,208.13
2018-11-01T10:32:23.576Z,208.13
2018-11-01T10:33:29.809Z,213.75
2018-11-01T10:34:36.046Z,225.00
2018-11-01T10:35:41.793Z,230.63
2018-11-01T10:36:48.046Z,230.63
2018-11-01T10:37:54.781Z,236.25
2018-11-01T10:39:01.083Z,241.88
2018-11-01T10:40:07.300Z,247.50
2018-11-01T10:41:13.018Z,247.50
2018-11-01T10:42:19.762Z,247.50
2018-11-01T10:43:26.014Z,253.13
2018-11-01T10:44:32.255Z,253.13
2018-11-01T10:45:38.518Z,253.13
2018-11-01T10:46:44.753Z,247.50
2018-11-01T10:47:51.062Z,247.50
2018-11-01T10:48:57.261Z,241.88
2018-11-01T10:50:04.515Z,247.50
2018-11-01T10:51:09.275Z,241.88
2018-11-01T10:52:16.021Z,247.50
2018-11-01T10:53:22.787Z,241.88
2018-11-01T10:54:28.131Z,241.88
2018-11-01T10:55:34.799Z,236.25
2018-11-01T10:56:40.556Z,236.25
2018-11-01T10:57:47.320Z,241.88
2018-11-01T10:58:53.579Z,258.75
2018-11-01T10:59:59.411Z,270.00
2018-11-01T11:01:06.109Z,281.25
2018-11-01T11:02:11.854Z,286.88
2018-11-01T11:03:18.616Z,281.25
2018-11-01T11:04:24.401Z,275.63
2018-11-01T11:05:30.656Z,270.00
2018-11-01T11:06:37.465Z,270.00
2018-11-01T11:07:43.694Z,258.75
2018-11-01T11:08:49.958Z,247.50
2018-11-01T11:09:56.235Z,236.25
2018-11-01T11:11:01.991Z,219.38
2018-11-01T11:12:08.752Z,208.13
2018-11-01T11:13:15.031Z,202.50
2018-11-01T11:14:20.803Z,219.38
2018-11-01T11:15:27.577Z,236.25
2018-11-01T11:16:33.825Z,275.63
2018-11-01T11:17:40.089Z,303.75
2018-11-01T11:18:45.880Z,331.88
2018-11-01T11:19:52.359Z,348.75
2018-11-01T11:20:59.312Z,343.13
2018-11-01T11:22:05.191Z,320.63
2018-11-01T11:23:11.566Z,286.88
2018-11-01T11:24:17.286Z,264.38
2018-11-01T11:25:24.017Z,241.88
2018-11-01T11:26:30.285Z,219.38
2018-11-01T11:27:36.572Z,185.63
2018-11-01T11:28:43.138Z,163.13
2018-11-01T11:29:48.635Z,151.88
2018-11-01T11:30:54.875Z,157.50
2018-11-01T11:32:01.139Z,168.75
2018-11-01T11:33:07.405Z,185.63
2018-11-01T11:34:14.182Z,208.13
2018-11-01T11:35:20.466Z,236.25
2018-11-01T11:36:26.214Z,264.38
2018-11-01T11:37:32.965Z,281.25
2018-11-01T11:38:38.742Z,286.88
2018-11-01T11:39:45.083Z,281.25
2018-11-01T11:40:51.777Z,264.38
2018-11-01T11:41:57.555Z,241.88
2018-11-01T11:43:04.160Z,230.63
2018-11-01T11:44:10.620Z,230.63
2018-11-01T11:45:16.857Z,213.75
2018-11-01T11:46:22.643Z,202.50
2018-11-01T11:47:30.403Z,191.25
2018-11-01T11:48:35.697Z,185.63
2018-11-01T11:49:41.468Z,185.63
2018-11-01T11:50:47.731Z,196.88
2018-11-01T11:51:53.990Z,208.13
2018-11-01T11:53:00.267Z,208.13
2018-11-01T11:54:07.026Z,196.88
2018-11-01T11:55:13.314Z,180.00
2018-11-01T11:56:19.080Z,174.38
2018-11-01T11:57:25.337Z,196.88
2018-11-01T11:58:31.613Z,241.88
2018-11-01T11:59:37.900Z,286.88
2018-11-01T12:00:44.146Z,320.63
2018-11-01T12:01:50.427Z,315.00
2018-11-01T12:02:57.204Z,303.75
2018-11-01T12:04:03.582Z,292.50
2018-11-01T12:05:09.342Z,292.50
2018-11-01T12:06:16.255Z,292.50
2018-11-01T12:07:22.338Z,292.50
2018-11-01T12:08:28.122Z,303.75
2018-11-01T12:09:34.915Z,309.38
2018-11-01T12:10:41.202Z,315.00
2018-11-01T12:11:47.982Z,315.00
2018-11-01T12:12:53.780Z,320.63
2018-11-01T12:13:59.625Z,315.00
2018-11-01T12:15:06.379Z,292.50
2018-11-01T12:16:12.661Z,264.38
2018-11-01T12:17:18.946Z,247.50
2018-11-01T12:18:25.256Z,241.88
2018-11-01T12:19:31.630Z,236.25
2018-11-01T12:20:37.340Z,236.25
2018-11-01T12:21:45.123Z,236.25
2018-11-01T12:22:49.920Z,225.00
2018-11-01T12:23:56.216Z,208.13
2018-11-01T12:25:02.831Z,185.63
2018-11-01T12:26:08.793Z,174.38
2018-11-01T12:27:15.096Z,163.13
2018-11-01T12:28:21.971Z,157.50
2018-11-01T12:29:28.158Z,157.50
2018-11-01T12:30:33.955Z,157.50
2018-11-01T12:31:40.231Z,146.25
2018-11-01T12:32:46.508Z,146.25
2018-11-01T12:33:53.280Z,151.88
2018-11-01T12:34:59.582Z,151.88
2018-11-01T12:36:05.905Z,151.88
2018-11-01T12:37:12.133Z,157.50
2018-11-01T12:38:18.392Z,163.13
2018-11-01T12:39:24.669Z,174.38
2018-11-01T12:40:30.949Z,185.63
2018-11-01T12:41:37.325Z,196.88
2018-11-01T12:42:43.020Z,213.75
2018-11-01T12:43:49.294Z,230.63
2018-11-01T12:44:56.068Z,253.13
2018-11-01T12:46:01.863Z,275.63
2018-11-01T12:47:08.653Z,298.13
2018-11-01T12:48:14.465Z,298.13
2018-11-01T12:49:21.225Z,270.00
2018-11-01T12:50:27.660Z,247.50
2018-11-01T12:51:33.830Z,236.25
2018-11-01T12:52:39.629Z,241.88
2018-11-01T12:53:46.422Z,230.63
2018-11-01T12:54:52.702Z,208.13
2018-11-01T12:55:59.600Z,180.00
2018-11-01T12:57:04.802Z,157.50
2018-11-01T12:58:11.104Z,151.88
2018-11-01T12:59:17.382Z,146.25
2018-11-01T13:00:23.692Z,140.63
2018-11-01T13:01:29.954Z,140.63
2018-11-01T13:02:36.764Z,140.63
2018-11-01T13:03:42.514Z,146.25
2018-11-01T13:04:48.801Z,146.25
2018-11-01T13:05:55.082Z,140.63
2018-11-01T13:07:01.347Z,135.00
2018-11-01T13:08:07.624Z,129.38
2018-11-01T13:09:14.382Z,135.00
2018-11-01T13:10:20.164Z,140.63
2018-11-01T13:11:26.944Z,135.00
2018-11-01T13:12:32.712Z,129.38
2018-11-01T13:13:40.020Z,135.00
2018-11-01T13:14:45.752Z,157.50
2018-11-01T13:15:52.034Z,185.63
2018-11-01T13:16:58.290Z,213.75
2018-11-01T13:18:04.706Z,225.00
2018-11-01T13:19:10.855Z,241.88
2018-11-01T13:20:16.653Z,258.75
2018-11-01T13:21:22.919Z,241.88
2018-11-01T13:22:29.691Z,196.88
2018-11-01T13:23:36.467Z,151.88
2018-11-01T13:24:41.744Z,146.25
2018-11-01T13:25:48.528Z,157.50
2018-11-01T13:26:54.315Z,191.25
2018-11-01T13:28:02.079Z,225.00
2018-11-01T13:29:06.887Z,241.88
2018-11-01T13:30:13.634Z,253.13
2018-11-01T13:31:19.454Z,264.38
2018-11-01T13:32:25.730Z,270.00
2018-11-01T13:33:32.510Z,281.25
2018-11-01T13:34:38.303Z,286.88
2018-11-01T13:35:45.104Z,298.13
2018-11-01T13:36:51.095Z,326.25
2018-11-01T13:37:57.691Z,343.13
2018-11-01T13:39:03.628Z,360.00
2018-11-01T13:40:10.560Z,343.13
2018-11-01T13:41:16.979Z,331.88
2018-11-01T13:42:22.441Z,320.63
2018-11-01T13:43:29.257Z,303.75
2018-11-01T13:44:35.577Z,348.75
2018-11-01T13:45:41.414Z,376.88
2018-11-01T13:46:48.276Z,354.38
2018-11-01T13:47:54.206Z,315.00
2018-11-01T13:49:00.962Z,354.38
2018-11-01T13:50:07.331Z,286.88
2018-11-01T13:51:13.702Z,303.75
2018-11-01T13:52:19.577Z,348.75
2018-11-01T13:53:25.944Z,208.13
2018-11-01T13:54:32.849Z,281.25
2018-11-01T13:55:38.727Z,326.25
2018-11-01T13:56:45.626Z,241.88
2018-11-01T13:57:51.519Z,286.88
2018-11-01T13:58:58.931Z,225.00
2018-11-01T14:00:04.809Z,213.75
2018-11-01T14:01:11.214Z,180.00
2018-11-01T14:02:17.151Z,163.13
2018-11-01T14:03:24.022Z,151.88
2018-11-01T14:04:29.927Z,140.63
2018-11-01T14:05:36.377Z,129.38
2018-11-01T14:06:43.197Z,123.75
2018-11-01T14:07:49.089Z,123.75
2018-11-01T14:08:55.565Z,135.00
2018-11-01T14:10:01.809Z,146.25